Rockhurst, New York
Current Conditions -  °F | °C
As of 11:53 PM on Saturday 22 Nov 2014 (Local Time) from KGFL Reporting Station
Overcast Overcast  
Wind Chill: 30°   Ceiling: 2400
Heat Index: 37°   Visibility: 7mi
Dew Point: 24°   Wind: 10mph
Humidity: 59%   Direction: 190°S
Pressure: 30.04"   Gusts: NA
Location:  43.4773°N, 73.6433°W
Report Text: KGFL 230453Z AUTO 19009KT 7SM OVC024 03/M04 A3004 RMK AO2 RAE0357 SLP179 P0000 T00281044 400281078
Loading
Personal Weather Stations






























Interactive Weather Map New forecast layout! Learn more

10-Day Weather Forecast

Advertisements
Track Severe Weather on mobile